Time;durP1;ratioP1;P1;durP2;ratioP2;P2;SDS_P1;SDS_P2;PMS_P1;PMS_P2;Temp;Humidity;BMP_temperature;BMP_pressure;BME280_temperature;BME280_humidity;BME280_pressure;Samples;Min_cycle;Max_cycle;Signal;HPM_P1;HPM_P2
2022/03/15 00:02:05;;;;;;;6.67;3.70;;;8.80;95.60;;;;;;10427247;28;20249;-85
2022/03/15 00:07:10;;;;;;;4.33;3.60;;;8.70;96.00;;;;;;10405380;28;20221;-85
2022/03/15 00:12:14;;;;;;;4.73;4.00;;;8.80;95.70;;;;;;10425610;28;20694;-85
2022/03/15 00:17:16;;;;;;;4.60;3.60;;;8.70;96.40;;;;;;10451569;28;20277;-86
2022/03/15 00:22:20;;;;;;;6.83;4.57;;;8.70;95.70;;;;;;10464148;28;20264;-85
2022/03/15 00:27:23;;;;;;;4.60;4.20;;;8.70;95.80;;;;;;10412413;28;20232;-85
2022/03/15 00:32:25;;;;;;;4.43;4.03;;;8.70;96.00;;;;;;10405937;28;20217;-83
2022/03/15 00:37:27;;;;;;;4.70;3.53;;;8.70;96.00;;;;;;10403239;28;20209;-83
2022/03/15 00:42:31;;;;;;;3.77;3.43;;;8.70;95.80;;;;;;10421189;28;20627;-85
2022/03/15 00:47:34;;;;;;;4.57;3.60;;;8.70;95.90;;;;;;10457816;28;20252;-85
2022/03/15 00:52:37;;;;;;;4.60;3.60;;;8.60;95.80;;;;;;10409076;28;20306;-85
2022/03/15 00:57:40;;;;;;;4.77;3.33;;;8.60;96.10;;;;;;10430494;28;20209;-85
2022/03/15 01:02:43;;;;;;;5.97;3.50;;;8.60;96.00;;;;;;10451549;28;20580;-84
2022/03/15 01:07:45;;;;;;;5.50;3.80;;;8.60;96.10;;;;;;10445799;28;20210;-84
2022/03/15 01:12:51;;;;;;;3.80;3.50;;;8.60;96.00;;;;;;10415336;28;20218;-84
2022/03/15 01:17:53;;;;;;;7.17;3.77;;;8.60;96.20;;;;;;10401965;28;20293;-84
2022/03/15 01:22:55;;;;;;;3.63;3.33;;;8.60;96.50;;;;;;10434452;28;20256;-86
2022/03/15 01:27:59;;;;;;;4.10;3.70;;;8.60;96.80;;;;;;10431872;28;20201;-86
2022/03/15 01:33:01;;;;;;;3.87;3.50;;;8.60;96.50;;;;;;10445510;28;20221;-84
2022/03/15 01:38:03;;;;;;;4.87;4.10;;;8.60;96.80;;;;;;10425096;28;20197;-85
2022/03/15 01:43:10;;;;;;;3.77;3.27;;;8.70;97.00;;;;;;10456854;28;20282;-84
2022/03/15 01:48:12;;;;;;;3.67;3.37;;;8.70;96.30;;;;;;10403434;28;20209;-85
2022/03/15 01:53:15;;;;;;;6.60;4.07;;;8.60;96.60;;;;;;10414674;28;20214;-84
2022/03/15 01:58:19;;;;;;;3.73;3.20;;;8.70;96.50;;;;;;10425306;28;20296;-83
2022/03/15 02:03:21;;;;;;;5.57;3.80;;;8.70;96.40;;;;;;10449332;28;20236;-85
2022/03/15 02:08:23;;;;;;;5.43;3.50;;;8.70;96.30;;;;;;10448836;28;20197;-85
2022/03/15 02:13:28;;;;;;;3.37;3.17;;;8.60;96.80;;;;;;10447927;28;20217;-86
2022/03/15 02:18:31;;;;;;;6.40;3.50;;;8.70;96.40;;;;;;10442904;28;20220;-84
2022/03/15 02:23:35;;;;;;;4.50;3.87;;;8.70;96.40;;;;;;10423655;28;20593;-85
2022/03/15 02:28:38;;;;;;;3.67;3.37;;;8.60;96.40;;;;;;10413617;28;20232;-85
2022/03/15 02:33:40;;;;;;;5.73;3.80;;;8.60;96.40;;;;;;10448209;28;20293;-86
2022/03/15 02:38:43;;;;;;;4.20;3.73;;;8.60;97.00;;;;;;10437356;28;20208;-85
2022/03/15 02:43:45;;;;;;;6.00;4.10;;;8.60;96.70;;;;;;10471938;28;20237;-86
2022/03/15 02:48:48;;;;;;;5.40;4.30;;;8.70;97.00;;;;;;10459696;28;20197;-85
2022/03/15 02:53:52;;;;;;;4.73;4.20;;;8.70;96.90;;;;;;10456098;28;20240;-84
2022/03/15 02:58:54;;;;;;;5.40;3.40;;;8.70;96.20;;;;;;10437385;28;20557;-85
2022/03/15 03:03:56;;;;;;;7.73;3.50;;;8.60;96.30;;;;;;10442056;28;20265;-84
2022/03/15 03:09:00;;;;;;;5.27;4.10;;;8.60;96.50;;;;;;10459084;28;20885;-86
2022/03/15 03:14:04;;;;;;;6.50;4.17;;;8.60;96.70;;;;;;10439587;28;20690;-84
2022/03/15 03:19:09;;;;;;;3.60;3.40;;;8.50;96.70;;;;;;10455788;28;20284;-82
2022/03/15 03:24:19;;;;;;;5.20;4.20;;;8.50;97.10;;;;;;10439400;28;20201;-84
2022/03/15 03:29:22;;;;;;;6.03;4.00;;;8.50;96.70;;;;;;10438823;28;20252;-85
2022/03/15 03:34:24;;;;;;;5.20;3.73;;;8.50;96.40;;;;;;10461278;28;20212;-82
2022/03/15 03:39:27;;;;;;;6.77;3.87;;;8.50;96.70;;;;;;10460116;28;20271;-85
2022/03/15 03:44:29;;;;;;;10.60;4.03;;;8.50;96.60;;;;;;10454154;28;20205;-83
2022/03/15 03:49:32;;;;;;;6.00;4.47;;;8.50;96.60;;;;;;10433596;28;20225;-83
2022/03/15 03:54:36;;;;;;;4.43;3.40;;;8.50;97.20;;;;;;10472119;28;20221;-84
2022/03/15 03:59:38;;;;;;;6.80;4.60;;;8.60;97.20;;;;;;10466380;28;20597;-83
2022/03/15 04:04:40;;;;;;;4.50;4.10;;;8.60;97.10;;;;;;10448498;28;20203;-82
2022/03/15 04:09:44;;;;;;;6.30;4.10;;;8.70;97.10;;;;;;10431254;28;20627;-82
2022/03/15 04:14:46;;;;;;;5.63;4.83;;;8.70;97.30;;;;;;10414335;28;21099;-82
2022/03/15 04:19:48;;;;;;;4.80;4.30;;;8.70;97.20;;;;;;10435318;28;20663;-82
2022/03/15 04:24:52;;;;;;;7.27;3.93;;;8.70;97.30;;;;;;10433596;28;20197;-82
2022/03/15 04:29:54;;;;;;;5.30;4.50;;;8.70;96.60;;;;;;10446858;28;20229;-82
2022/03/15 04:34:56;;;;;;;4.80;3.87;;;8.60;96.70;;;;;;10450193;28;20708;-83
2022/03/15 04:40:00;;;;;;;4.43;4.03;;;8.50;97.00;;;;;;10419982;28;20320;-83
2022/03/15 04:45:02;;;;;;;4.50;4.10;;;8.50;96.80;;;;;;10440249;28;20284;-85
2022/03/15 04:50:06;;;;;;;4.80;3.60;;;8.50;96.90;;;;;;10451994;28;20299;-84
2022/03/15 04:55:10;;;;;;;7.00;3.63;;;8.50;96.50;;;;;;10466002;28;20235;-84
2022/03/15 05:00:14;;;;;;;5.27;4.77;;;8.50;96.70;;;;;;10477339;28;20241;-82
2022/03/15 05:05:16;;;;;;;3.40;3.10;;;8.40;96.70;;;;;;10437591;28;20205;-85
2022/03/15 05:15:40;;;;;;;3.90;3.50;;;8.40;97.00;;;;;;10431930;28;20221;-84
2022/03/15 05:20:42;;;;;;;5.07;4.27;;;8.50;97.10;;;;;;10444429;28;20231;-84
2022/03/15 05:25:46;;;;;;;4.40;2.60;;;8.50;96.60;;;;;;10438554;28;20202;-85
2022/03/15 05:30:48;;;;;;;14.10;4.67;;;8.50;96.60;;;;;;10443797;28;20217;-85
2022/03/15 05:35:50;;;;;;;5.80;3.60;;;8.50;96.40;;;;;;10429552;28;20225;-84
2022/03/15 05:40:54;;;;;;;5.37;4.50;;;8.40;96.50;;;;;;10420829;28;20233;-86
2022/03/15 05:45:57;;;;;;;5.27;3.87;;;8.40;96.50;;;;;;10456601;28;20189;-87
2022/03/15 05:50:59;;;;;;;9.80;5.10;;;8.50;96.90;;;;;;10438635;28;20229;-85
2022/03/15 05:56:02;;;;;;;3.83;3.20;;;8.50;96.90;;;;;;10440942;28;20312;-85
2022/03/15 06:01:04;;;;;;;7.17;4.60;;;8.60;96.30;;;;;;10441011;28;20232;-85
2022/03/15 06:06:07;;;;;;;4.20;3.67;;;8.60;96.20;;;;;;10415632;28;20301;-86
2022/03/15 06:11:11;;;;;;;5.83;4.10;;;8.60;96.50;;;;;;10442521;28;20305;-85
2022/03/15 06:16:13;;;;;;;6.00;3.90;;;8.50;96.70;;;;;;10432801;28;20228;-87
2022/03/15 06:21:16;;;;;;;5.20;4.60;;;8.60;97.20;;;;;;10442021;28;20260;-85
2022/03/15 06:26:20;;;;;;;7.23;4.63;;;8.70;97.30;;;;;;10465898;28;20193;-84
2022/03/15 06:31:22;;;;;;;6.40;3.73;;;8.80;97.10;;;;;;10464183;28;20458;-83
2022/03/15 06:36:24;;;;;;;6.07;3.50;;;8.90;97.20;;;;;;10460688;28;20727;-85
2022/03/15 06:41:28;;;;;;;6.70;4.07;;;9.00;96.40;;;;;;10445874;28;20251;-84
2022/03/15 06:46:30;;;;;;;8.27;4.60;;;9.10;96.70;;;;;;10443958;28;20217;-82
2022/03/15 06:51:32;;;;;;;5.93;4.90;;;9.10;96.70;;;;;;10466760;28;20225;-81
2022/03/15 06:56:39;;;;;;;9.70;4.77;;;9.20;96.90;;;;;;10468521;28;20224;-85
2022/03/15 07:01:42;;;;;;;8.37;5.40;;;9.30;96.80;;;;;;10460417;28;20224;-84
2022/03/15 07:06:44;;;;;;;10.03;5.67;;;9.40;96.90;;;;;;10450591;28;20190;-84
2022/03/15 07:11:48;;;;;;;5.03;4.53;;;9.60;96.90;;;;;;10448858;28;20556;-84
2022/03/15 07:16:50;;;;;;;5.30;4.80;;;9.70;96.80;;;;;;10434161;28;20251;-84
2022/03/15 07:21:52;;;;;;;5.77;5.00;;;9.90;97.00;;;;;;10451758;28;20260;-85
2022/03/15 07:26:55;;;;;;;8.70;5.57;;;10.00;96.50;;;;;;10454729;28;20202;-84
2022/03/15 07:31:57;;;;;;;4.07;3.77;;;10.20;95.30;;;;;;10449611;28;20248;-84
2022/03/15 07:37:00;;;;;;;5.80;4.33;;;10.30;96.00;;;;;;10456783;28;20217;-85
2022/03/15 07:42:03;;;;;;;7.53;5.03;;;10.30;94.90;;;;;;10457429;28;20233;-85
2022/03/15 07:47:10;;;;;;;5.20;4.17;;;10.40;95.00;;;;;;10440261;28;20239;-85
2022/03/15 07:52:13;;;;;;;4.83;4.20;;;10.50;95.10;;;;;;10436889;28;20744;-85
2022/03/15 07:57:16;;;;;;;6.80;4.80;;;10.50;94.60;;;;;;10431197;28;20631;-85
2022/03/15 08:02:18;;;;;;;16.20;11.17;;;10.60;94.90;;;;;;10442389;28;20217;-83
2022/03/15 08:07:22;;;;;;;6.17;5.57;;;10.70;95.50;;;;;;10436831;28;20207;-84
2022/03/15 08:12:27;;;;;;;6.53;4.30;;;10.80;95.40;;;;;;10429128;28;20213;-84
2022/03/15 08:17:30;;;;;;;11.93;5.60;;;10.90;94.50;;;;;;10451977;28;20224;-85
2022/03/15 08:22:32;;;;;;;5.00;4.50;;;11.00;93.90;;;;;;10441181;28;20276;-83
2022/03/15 08:27:37;;;;;;;5.00;4.50;;;11.10;93.10;;;;;;10444996;28;20276;-84
2022/03/15 08:32:39;;;;;;;5.43;4.23;;;11.30;93.50;;;;;;10449090;28;20240;-83
2022/03/15 08:37:50;;;;;;;4.20;3.87;;;11.40;93.40;;;;;;10450418;28;20214;-84
2022/03/15 08:42:53;;;;;;;4.53;4.13;;;11.60;93.30;;;;;;10458567;28;20697;-84
2022/03/15 08:47:55;;;;;;;6.17;3.90;;;11.80;92.10;;;;;;10449768;28;20782;-84
2022/03/15 08:52:57;;;;;;;7.37;3.80;;;11.90;92.20;;;;;;10456908;23;20236;-82
2022/03/15 08:58:01;;;;;;;5.70;3.80;;;11.90;92.00;;;;;;10467144;28;20227;-82
2022/03/15 09:03:03;;;;;;;5.10;3.60;;;12.00;91.80;;;;;;10439463;28;20228;-82
2022/03/15 09:08:05;;;;;;;4.27;3.60;;;12.10;91.10;;;;;;10456395;28;20262;-82
2022/03/15 09:13:09;;;;;;;4.80;3.00;;;12.10;91.30;;;;;;10433869;28;20299;-82
2022/03/15 09:18:11;;;;;;;4.17;3.20;;;12.10;91.00;;;;;;10456133;28;20244;-82
2022/03/15 09:23:14;;;;;;;4.43;2.77;;;12.20;91.90;;;;;;10420211;28;20249;-82
2022/03/15 09:28:17;;;;;;;3.70;3.40;;;12.10;93.50;;;;;;10436654;28;20287;-83
2022/03/15 09:33:20;;;;;;;3.30;3.10;;;12.00;95.20;;;;;;10455526;28;20653;-83
2022/03/15 09:38:23;;;;;;;3.70;3.40;;;11.90;95.70;;;;;;10419721;28;20692;-83
2022/03/15 09:43:27;;;;;;;4.50;3.47;;;11.90;96.70;;;;;;10418423;28;20262;-83
2022/03/15 09:48:29;;;;;;;4.77;3.90;;;12.00;97.30;;;;;;10416327;28;20205;-82
2022/03/15 09:53:34;;;;;;;4.40;3.40;;;12.00;97.80;;;;;;10417173;28;20396;-82
2022/03/15 09:58:37;;;;;;;3.97;3.63;;;12.00;97.80;;;;;;10438352;28;20274;-82
2022/03/15 10:03:39;;;;;;;4.47;3.30;;;12.00;98.20;;;;;;10419944;28;20252;-83
2022/03/15 10:08:42;;;;;;;4.43;3.50;;;12.00;98.60;;;;;;10415701;28;20209;-81
2022/03/15 10:13:47;;;;;;;3.20;2.83;;;12.00;98.80;;;;;;10415982;28;20229;-82
2022/03/15 10:18:54;;;;;;;5.40;3.20;;;12.00;99.10;;;;;;10431401;28;20233;-82
2022/03/15 10:23:56;;;;;;;4.60;3.60;;;12.00;99.30;;;;;;10432086;28;20228;-82
2022/03/15 10:29:00;;;;;;;2.90;2.60;;;12.10;99.40;;;;;;10411678;28;20209;-83
2022/03/15 10:34:07;;;;;;;5.00;3.23;;;12.10;99.00;;;;;;10443568;28;20229;-82
2022/03/15 10:39:12;;;;;;;5.17;4.67;;;12.10;99.20;;;;;;10455563;28;20219;-82
2022/03/15 10:44:21;;;;;;;5.43;3.87;;;12.10;98.90;;;;;;10439092;28;20312;-83
2022/03/15 10:49:23;;;;;;;7.43;3.83;;;12.10;99.00;;;;;;10431584;28;20564;-82
2022/03/15 10:54:28;;;;;;;4.90;4.50;;;12.10;99.20;;;;;;10449875;28;20239;-81
2022/03/15 10:59:32;;;;;;;6.67;4.70;;;12.10;99.50;;;;;;10415950;28;20220;-83
2022/03/15 11:04:34;;;;;;;4.90;4.40;;;12.00;99.90;;;;;;10433940;28;20248;-82
2022/03/15 11:09:36;;;;;;;6.27;4.77;;;11.90;99.90;;;;;;10414099;28;20304;-83
2022/03/15 11:14:45;;;;;;;5.00;4.50;;;11.90;99.90;;;;;;10426163;28;20213;-83
2022/03/15 11:19:49;;;;;;;5.27;4.87;;;11.80;99.90;;;;;;10433635;28;20730;-83
2022/03/15 11:25:00;;;;;;;5.40;4.87;;;11.70;99.90;;;;;;10447947;28;20569;-83
2022/03/15 11:30:12;;;;;;;6.00;5.50;;;11.50;99.90;;;;;;10449574;28;20660;-81
2022/03/15 11:35:19;;;;;;;6.67;6.03;;;11.40;99.90;;;;;;10447154;28;20229;-82
2022/03/15 11:40:22;;;;;;;8.20;7.17;;;11.30;99.90;;;;;;10423579;28;20533;-82
2022/03/15 11:45:29;;;;;;;14.00;8.70;;;11.20;99.90;;;;;;10434954;28;20268;-82
2022/03/15 11:50:38;;;;;;;10.23;9.10;;;11.00;99.90;;;;;;10459686;28;20224;-82
2022/03/15 11:55:49;;;;;;;10.23;9.13;;;10.80;99.90;;;;;;10440217;28;20232;-81
2022/03/15 12:00:57;;;;;;;9.87;8.87;;;10.70;99.90;;;;;;10420944;28;20268;-82
2022/03/15 12:05:59;;;;;;;9.03;8.13;;;10.70;99.90;;;;;;10431253;28;20203;-82
2022/03/15 12:11:04;;;;;;;10.50;8.70;;;10.80;99.90;;;;;;10456987;28;20213;-83
2022/03/15 12:16:11;;;;;;;9.13;8.20;;;10.80;99.90;;;;;;10438243;28;20214;-82
2022/03/15 12:21:14;;;;;;;8.30;7.50;;;10.90;99.90;;;;;;10443206;28;20259;-83
2022/03/15 12:26:19;;;;;;;8.63;7.70;;;10.90;99.90;;;;;;10422684;28;20198;-84
2022/03/15 12:31:33;;;;;;;8.03;7.30;;;11.10;99.90;;;;;;10427347;28;20227;-83
2022/03/15 12:36:41;;;;;;;10.53;6.83;;;11.20;99.90;;;;;;10437865;28;20244;-83
2022/03/15 12:41:44;;;;;;;7.37;6.67;;;11.10;99.90;;;;;;10447745;28;20220;-81
2022/03/15 12:46:48;;;;;;;8.73;6.90;;;11.00;99.90;;;;;;10435552;28;20201;-81
2022/03/15 12:51:51;;;;;;;7.40;6.60;;;10.90;99.90;;;;;;10453938;28;20536;-82
2022/03/15 12:56:53;;;;;;;7.87;6.90;;;10.90;99.90;;;;;;10447118;28;20240;-83
2022/03/15 13:01:57;;;;;;;6.87;6.23;;;11.00;99.90;;;;;;10450562;28;20232;-81
2022/03/15 13:07:02;;;;;;;7.23;6.53;;;11.00;99.90;;;;;;10418388;28;20633;-84
2022/03/15 13:12:15;;;;;;;7.83;7.13;;;11.00;99.90;;;;;;10411670;28;20241;-83
2022/03/15 13:17:20;;;;;;;7.53;6.93;;;11.10;99.90;;;;;;10439489;28;20697;-83
2022/03/15 13:22:30;;;;;;;7.07;6.37;;;11.10;99.90;;;;;;10424357;28;20217;-83
2022/03/15 13:27:39;;;;;;;8.43;7.53;;;11.20;99.90;;;;;;10440803;28;20193;-83
2022/03/15 13:32:51;;;;;;;8.13;7.23;;;11.30;99.90;;;;;;10442812;28;20218;-83
2022/03/15 13:37:54;;;;;;;8.83;7.40;;;11.40;99.90;;;;;;10425500;28;20217;-83
2022/03/15 13:43:01;;;;;;;8.47;7.57;;;11.40;99.90;;;;;;10425329;28;20259;-83
2022/03/15 13:48:05;;;;;;;7.50;6.83;;;11.50;99.90;;;;;;10450464;28;20702;-83
2022/03/15 13:53:22;;;;;;;7.70;6.43;;;11.50;99.90;;;;;;10441996;28;20300;-81
2022/03/15 13:58:29;;;;;;;7.43;6.60;;;11.60;99.90;;;;;;10440223;28;20221;-81
2022/03/15 14:03:34;;;;;;;7.27;6.57;;;11.60;99.90;;;;;;10426662;28;20220;-81
2022/03/15 14:08:48;;;;;;;8.10;6.80;;;11.60;99.90;;;;;;10444504;28;20193;-81
2022/03/15 14:14:04;;;;;;;7.37;6.77;;;11.60;99.90;;;;;;10466580;28;20221;-81
2022/03/15 14:19:10;;;;;;;7.33;6.60;;;11.50;99.90;;;;;;10443030;28;20221;-81
2022/03/15 14:24:21;;;;;;;9.23;7.83;;;11.60;99.90;;;;;;10440604;28;20225;-81
2022/03/15 14:29:24;;;;;;;7.73;6.97;;;11.80;99.90;;;;;;10463222;28;20201;-81
2022/03/15 14:34:27;;;;;;;11.57;6.07;;;11.90;99.90;;;;;;10449220;28;20229;-81
2022/03/15 14:39:35;;;;;;;7.30;6.33;;;12.00;99.90;;;;;;10467057;28;20696;-81
2022/03/15 14:44:39;;;;;;;6.17;5.60;;;12.10;99.90;;;;;;10469078;28;20201;-81
2022/03/15 14:49:43;;;;;;;4.97;4.57;;;12.20;99.90;;;;;;10456539;28;20197;-81
2022/03/15 14:54:48;;;;;;;5.60;4.97;;;12.20;99.90;;;;;;10538416;22;20713;-79
2022/03/15 14:59:52;;;;;;;4.80;4.40;;;12.10;99.90;;;;;;10519807;28;20204;-79
2022/03/15 15:04:57;;;;;;;7.90;7.10;;;12.10;99.90;;;;;;10525183;28;20223;-80
2022/03/15 15:10:02;;;;;;;7.23;6.57;;;12.10;99.90;;;;;;10541574;28;20191;-80
2022/03/15 15:15:04;;;;;;;5.67;5.27;;;12.10;99.90;;;;;;10522348;28;20695;-79
2022/03/15 15:20:11;;;;;;;5.80;5.10;;;12.10;99.90;;;;;;10540453;28;20206;-81
2022/03/15 15:25:13;;;;;;;6.50;5.87;;;12.10;99.90;;;;;;10530999;28;20202;-79
2022/03/15 15:30:18;;;;;;;6.30;5.00;;;12.10;99.90;;;;;;10546249;28;21024;-80
2022/03/15 15:35:22;;;;;;;6.13;5.23;;;12.10;99.90;;;;;;10521091;28;20230;-80
2022/03/15 15:40:24;;;;;;;11.03;7.27;;;12.10;99.90;;;;;;10517033;28;20227;-81
2022/03/15 15:45:29;;;;;;;6.53;5.87;;;12.10;99.90;;;;;;10533820;28;20245;-81
2022/03/15 15:50:33;;;;;;;7.07;6.17;;;12.00;99.90;;;;;;10521066;28;20604;-81
2022/03/15 15:55:40;;;;;;;9.60;8.80;;;11.90;99.90;;;;;;10532057;28;20197;-81
2022/03/15 16:00:45;;;;;;;7.27;6.57;;;11.90;99.90;;;;;;10537767;28;20244;-81
2022/03/15 16:05:50;;;;;;;9.20;8.23;;;11.90;99.90;;;;;;10519607;28;20213;-81
2022/03/15 16:10:53;;;;;;;8.17;7.23;;;11.90;99.90;;;;;;10539430;28;20742;-81
2022/03/15 16:15:58;;;;;;;8.70;8.00;;;11.90;99.90;;;;;;10522411;28;20188;-81
2022/03/15 16:21:02;;;;;;;7.40;6.70;;;11.90;99.90;;;;;;10537857;28;20695;-81
2022/03/15 16:26:05;;;;;;;6.70;6.20;;;11.90;99.90;;;;;;10523006;28;20219;-81
2022/03/15 16:31:13;;;;;;;9.80;8.83;;;11.90;99.90;;;;;;10501885;28;20393;-81
2022/03/15 16:36:18;;;;;;;16.57;14.70;;;11.90;99.90;;;;;;10540207;28;20197;-81
2022/03/15 16:41:27;;;;;;;9.53;8.57;;;11.90;99.90;;;;;;10512067;28;20216;-81
2022/03/15 16:46:32;;;;;;;8.83;7.93;;;11.90;99.90;;;;;;10514750;28;20219;-81
2022/03/15 16:51:36;;;;;;;15.73;12.07;;;11.80;99.90;;;;;;10513517;28;20223;-81
2022/03/15 16:56:41;;;;;;;9.10;8.20;;;11.80;99.90;;;;;;10541655;28;20204;-81
2022/03/15 17:01:44;;;;;;;8.47;7.03;;;11.70;99.90;;;;;;10516330;28;20217;-81
2022/03/15 17:06:48;;;;;;;7.30;6.70;;;11.60;99.90;;;;;;10509455;28;20212;-81
2022/03/15 17:12:00;;;;;;;6.57;6.03;;;11.50;99.90;;;;;;10515235;28;20606;-81
2022/03/15 17:17:06;;;;;;;8.17;7.47;;;11.50;99.90;;;;;;10529702;28;20192;-81
2022/03/15 17:22:14;;;;;;;8.40;7.53;;;11.40;99.90;;;;;;10504614;28;20207;-81
2022/03/15 17:27:16;;;;;;;9.23;8.33;;;11.40;99.90;;;;;;10538852;28;20699;-81
2022/03/15 17:32:22;;;;;;;8.20;7.50;;;11.40;99.90;;;;;;10511536;28;20216;-81
2022/03/15 17:37:29;;;;;;;10.80;9.33;;;11.40;99.90;;;;;;10537543;28;20675;-81
2022/03/15 17:42:38;;;;;;;9.47;8.70;;;11.40;99.90;;;;;;10510346;28;20566;-81
2022/03/15 17:47:41;;;;;;;9.83;8.93;;;11.30;99.90;;;;;;10525201;28;20238;-81
2022/03/15 17:52:51;;;;;;;13.67;11.00;;;11.20;99.90;;;;;;10529971;28;20749;-81
2022/03/15 17:57:56;;;;;;;14.57;12.73;;;11.10;99.90;;;;;;10528035;28;20200;-81
2022/03/15 18:02:58;;;;;;;11.73;10.63;;;11.10;99.90;;;;;;10502325;28;20235;-80
2022/03/15 18:08:02;;;;;;;12.47;11.43;;;11.00;99.90;;;;;;10495787;28;20276;-80
2022/03/15 18:13:07;;;;;;;13.87;12.47;;;11.00;99.90;;;;;;10501200;28;20247;-81
2022/03/15 18:18:11;;;;;;;14.30;13.10;;;11.00;99.90;;;;;;10497432;28;20280;-80
2022/03/15 18:23:15;;;;;;;14.33;13.10;;;10.90;99.90;;;;;;10515488;28;20223;-80
2022/03/15 18:28:21;;;;;;;14.60;13.20;;;10.80;99.90;;;;;;10509507;28;20220;-81
2022/03/15 18:33:25;;;;;;;15.80;12.80;;;10.80;99.90;;;;;;10512197;28;20215;-81
2022/03/15 18:38:28;;;;;;;16.13;14.83;;;10.80;99.90;;;;;;10509676;28;20199;-81
2022/03/15 18:43:30;;;;;;;17.23;15.70;;;10.80;99.90;;;;;;10517658;28;20224;-80
2022/03/15 18:48:33;;;;;;;17.43;15.90;;;10.80;99.90;;;;;;10509528;28;20219;-81
2022/03/15 18:53:40;;;;;;;19.40;17.60;;;10.70;99.90;;;;;;10533266;28;20809;-81
2022/03/15 18:58:42;;;;;;;16.00;14.40;;;10.70;99.90;;;;;;10497877;28;20770;-81
2022/03/15 19:03:44;;;;;;;18.90;16.63;;;10.70;99.90;;;;;;10539261;28;20277;-81
2022/03/15 19:08:52;;;;;;;18.27;16.47;;;10.70;99.90;;;;;;10505912;28;20723;-81
2022/03/15 19:13:54;;;;;;;18.50;16.80;;;10.70;99.90;;;;;;10498726;28;20323;-81
2022/03/15 19:18:59;;;;;;;18.93;16.87;;;10.80;99.90;;;;;;10518476;28;20278;-81
2022/03/15 19:24:04;;;;;;;21.00;19.00;;;10.70;99.90;;;;;;10521128;28;20589;-81
2022/03/15 19:29:08;;;;;;;19.53;17.70;;;10.80;99.90;;;;;;10494960;28;20660;-81
2022/03/15 19:34:13;;;;;;;21.63;19.63;;;10.80;99.90;;;;;;10510149;28;20538;-82
2022/03/15 19:39:17;;;;;;;23.07;20.93;;;10.80;99.90;;;;;;10539705;28;20248;-81
2022/03/15 19:44:19;;;;;;;23.40;20.87;;;10.80;99.90;;;;;;10499653;28;20702;-81
2022/03/15 19:49:22;;;;;;;23.30;21.20;;;10.80;99.90;;;;;;10509360;28;20265;-81
2022/03/15 19:54:25;;;;;;;22.87;20.87;;;10.80;99.90;;;;;;10488068;28;20238;-81
2022/03/15 19:59:32;;;;;;;22.87;20.70;;;10.80;99.90;;;;;;10512288;28;20276;-81
2022/03/15 20:04:36;;;;;;;23.53;21.47;;;10.80;99.90;;;;;;10495071;28;20306;-80
2022/03/15 20:09:40;;;;;;;26.17;23.60;;;10.80;99.90;;;;;;10514860;28;20277;-81
2022/03/15 20:14:42;;;;;;;25.37;22.97;;;10.80;99.90;;;;;;10512893;28;20595;-82
2022/03/15 20:19:47;;;;;;;26.47;23.97;;;10.80;99.90;;;;;;10509153;28;20211;-82
2022/03/15 20:24:55;;;;;;;28.20;25.50;;;10.70;99.90;;;;;;10504382;28;20287;-82
2022/03/15 20:29:58;;;;;;;29.77;26.97;;;10.60;99.90;;;;;;10507773;28;20219;-81
2022/03/15 20:35:00;;;;;;;30.17;27.20;;;10.50;99.90;;;;;;10505882;28;20243;-82
2022/03/15 20:40:04;;;;;;;29.53;26.77;;;10.50;99.90;;;;;;10527451;28;20627;-81
2022/03/15 20:45:07;;;;;;;30.63;27.77;;;10.50;99.90;;;;;;10522556;28;20224;-82
2022/03/15 20:50:09;;;;;;;30.33;27.67;;;10.40;99.90;;;;;;10520367;28;20251;-82
2022/03/15 20:55:13;;;;;;;29.80;27.10;;;10.40;99.90;;;;;;10503138;22;20346;-84
2022/03/15 21:00:21;;;;;;;34.63;31.27;;;10.40;99.90;;;;;;10485372;28;20319;-83
2022/03/15 21:05:23;;;;;;;33.43;30.33;;;10.40;99.90;;;;;;10492827;28;20220;-80
2022/03/15 21:10:27;;;;;;;31.63;28.37;;;10.30;99.90;;;;;;10472497;28;20600;-83
2022/03/15 21:15:29;;;;;;;33.50;30.40;;;10.40;99.90;;;;;;10468841;28;20545;-82
2022/03/15 21:20:32;;;;;;;35.03;31.90;;;10.40;99.90;;;;;;10442939;28;20197;-81
2022/03/15 21:25:37;;;;;;;32.40;29.20;;;10.30;99.90;;;;;;10469379;28;20284;-83
2022/03/15 21:30:39;;;;;;;32.83;29.93;;;10.40;99.90;;;;;;10447561;28;20236;-84
2022/03/15 21:35:43;;;;;;;32.57;29.47;;;10.30;99.90;;;;;;10453358;28;20213;-82
2022/03/15 21:40:47;;;;;;;29.50;26.80;;;10.30;99.90;;;;;;10457499;28;20190;-81
2022/03/15 21:45:49;;;;;;;29.33;26.57;;;10.30;99.90;;;;;;10440525;28;20204;-81
2022/03/15 21:50:52;;;;;;;32.67;29.57;;;10.40;99.90;;;;;;10465974;28;20763;-83
2022/03/15 21:55:59;;;;;;;32.90;30.00;;;10.40;99.90;;;;;;10430956;28;20545;-84
2022/03/15 22:01:02;;;;;;;28.63;25.93;;;10.40;99.90;;;;;;10439938;28;20209;-81
2022/03/15 22:06:06;;;;;;;27.17;24.67;;;10.40;99.90;;;;;;10439259;28;20205;-81
2022/03/15 22:11:10;;;;;;;28.33;25.70;;;10.50;99.90;;;;;;10429960;28;20220;-79
2022/03/15 22:16:12;;;;;;;27.17;24.60;;;10.50;99.90;;;;;;10445117;28;20248;-79
2022/03/15 22:21:17;;;;;;;30.70;27.70;;;10.60;99.90;;;;;;10461745;28;20691;-79
2022/03/15 22:26:21;;;;;;;30.50;27.53;;;10.60;99.90;;;;;;10460653;28;20204;-81
2022/03/15 23:18:50;;;;;;;37.10;33.10;;;10.60;99.90;;;;;;10446458;28;20233;-81
2022/03/15 23:23:53;;;;;;;32.10;28.77;;;10.60;99.90;;;;;;10472628;28;20248;-81
2022/03/15 23:28:57;;;;;;;32.47;29.20;;;10.60;99.90;;;;;;10457704;28;20625;-81
2022/03/15 23:33:59;;;;;;;33.90;30.00;;;10.60;99.90;;;;;;10469806;28;20555;-80
2022/03/15 23:39:01;;;;;;;32.07;28.70;;;10.60;99.90;;;;;;10452680;28;20207;-80
2022/03/15 23:44:05;;;;;;;31.50;28.17;;;10.60;99.90;;;;;;10462794;28;20277;-80
2022/03/15 23:49:07;;;;;;;28.87;25.87;;;10.60;99.90;;;;;;10455155;28;20294;-81
2022/03/15 23:54:12;;;;;;;32.80;29.30;;;10.60;99.90;;;;;;10455078;28;20316;-81
2022/03/15 23:59:16;;;;;;;32.87;28.97;;;10.60;99.90;;;;;;10470185;28;20220;-81
